createdAt,value
2018-04-11T00:00:51.522Z,86.61
2018-04-11T00:02:01.490Z,86.47
2018-04-11T00:03:11.455Z,86.22
2018-04-11T00:04:20.928Z,86.18
2018-04-11T00:05:30.962Z,86.28
2018-04-11T00:06:40.667Z,86.37
2018-04-11T00:07:50.665Z,86.57
2018-04-11T00:09:00.626Z,86.57
2018-04-11T00:10:10.616Z,86.85
2018-04-11T00:11:20.598Z,86.76
2018-04-11T00:12:30.319Z,86.76
2018-04-11T00:13:40.081Z,86.47
2018-04-11T00:14:50.050Z,86.47
2018-04-11T00:15:59.825Z,87.04
2018-04-11T00:17:09.551Z,87.23
2018-04-11T00:18:19.009Z,87.23
2018-04-11T00:19:28.715Z,87.23
2018-04-11T00:20:38.683Z,87.43
2018-04-11T00:21:48.386Z,87.33
2018-04-11T00:22:58.366Z,87.43
2018-04-11T00:24:08.358Z,87.62
2018-04-11T00:25:18.065Z,88.57
2018-04-11T00:26:27.781Z,88.48
2018-04-11T00:27:37.512Z,88.19
2018-04-11T00:28:47.489Z,88.09
2018-04-11T00:29:57.453Z,87.9
2018-04-11T00:31:07.167Z,88.19
2018-04-11T00:32:17.124Z,88.48
2018-04-11T00:33:26.828Z,88.19
2018-04-11T00:34:36.808Z,88.67
2018-04-11T00:35:46.807Z,88.09
2018-04-11T00:36:56.540Z,88.72
2018-04-11T00:38:06.513Z,88.95
2018-04-11T00:39:16.480Z,88.57
2018-04-11T00:40:26.456Z,89.1
2018-04-11T00:41:36.431Z,88.72
2018-04-11T00:42:46.392Z,88.91
2018-04-11T00:43:56.360Z,89.29
2018-04-11T00:45:06.084Z,89.67
2018-04-11T00:46:15.793Z,89.58
2018-04-11T00:47:25.821Z,89.87
2018-04-11T00:48:35.809Z,90.34
2018-04-11T00:49:45.838Z,89.96
2018-04-11T00:50:55.856Z,90.06
2018-04-11T00:52:05.828Z,90.73
2018-04-11T00:53:15.814Z,90.53
2018-04-11T00:54:25.777Z,90.34
2018-04-11T00:55:35.761Z,90.63
2018-04-11T00:56:45.732Z,90.53
2018-04-11T00:57:55.705Z,90.53
2018-04-11T00:59:05.722Z,90.16
2018-04-11T01:00:15.439Z,90.53
2018-04-11T01:01:25.153Z,91.2
2018-04-11T01:02:34.865Z,90.34
2018-04-11T01:03:45.145Z,90.44
2018-04-11T01:04:54.841Z,90.92
2018-04-11T01:06:04.809Z,90.92
2018-04-11T01:07:14.523Z,91.11
2018-04-11T01:08:23.967Z,91.02
2018-04-11T01:09:33.938Z,91.2
2018-04-11T01:10:43.916Z,91.02
2018-04-11T01:11:53.887Z,91.11
2018-04-11T01:13:03.619Z,91.11
2018-04-11T01:14:13.591Z,90.82
2018-04-11T01:15:23.316Z,90.92
2018-04-11T01:16:33.025Z,91.39
2018-04-11T01:17:42.985Z,91.59
2018-04-11T01:18:52.966Z,91.39
2018-04-11T01:20:02.947Z,91.49
2018-04-11T01:21:12.916Z,91.39
2018-04-11T01:22:22.726Z,91.39
2018-04-11T01:23:32.708Z,91.39
2018-04-11T01:24:42.721Z,91.39
2018-04-11T01:25:52.683Z,91.88
2018-04-11T01:27:02.650Z,91.49
2018-04-11T01:28:12.626Z,92.16
2018-04-11T01:29:22.349Z,92.07
2018-04-11T01:30:32.350Z,92.07
2018-04-11T01:31:42.062Z,92.07
2018-04-11T01:32:51.537Z,92.07
2018-04-11T01:34:01.505Z,92.07
2018-04-11T01:35:11.781Z,92.25
2018-04-11T01:36:21.745Z,91.59
2018-04-11T01:37:31.708Z,91.88
2018-04-11T01:38:41.160Z,92.16
2018-04-11T01:39:51.118Z,92.07
2018-04-11T01:41:00.824Z,92.74
2018-04-11T01:42:10.802Z,92.83
2018-04-11T01:43:20.518Z,92.93
2018-04-11T01:44:30.488Z,92.93
2018-04-11T01:45:40.456Z,93.12
2018-04-11T01:46:50.424Z,93.6
2018-04-11T01:47:59.870Z,93.79
2018-04-11T01:49:09.829Z,93.6
2018-04-11T01:50:19.540Z,93.31
2018-04-11T01:51:29.258Z,93.5
2018-04-11T01:52:39.218Z,93.55
2018-04-11T01:53:49.187Z,93.93
2018-04-11T01:54:58.897Z,93.55
2018-04-11T01:56:08.866Z,93.36
2018-04-11T01:57:18.831Z,93.93
2018-04-11T01:58:28.824Z,94.02
2018-04-11T01:59:38.791Z,94.02
2018-04-11T02:00:48.756Z,94.02
2018-04-11T02:01:58.724Z,93.65
2018-04-11T02:03:08.435Z,93.93
2018-04-11T02:04:18.168Z,93.74
2018-04-11T02:05:28.154Z,93.74
2018-04-11T02:06:37.870Z,93.93
2018-04-11T02:07:47.589Z,93.74
2018-04-11T02:08:57.557Z,93.65
2018-04-11T02:10:07.523Z,93.74
2018-04-11T02:11:17.228Z,94.22
2018-04-11T02:12:27.203Z,94.12
2018-04-11T02:13:37.182Z,93.84
2018-04-11T02:14:47.177Z,93.65
2018-04-11T02:15:56.882Z,94.02
2018-04-11T02:17:06.837Z,94.41
2018-04-11T02:18:16.544Z,94.7
2018-04-11T02:19:26.511Z,93.74
2018-04-11T02:20:36.496Z,94.7
2018-04-11T02:21:46.450Z,94.89
2018-04-11T02:22:56.424Z,94.31
2018-04-11T02:24:06.146Z,94.31
2018-04-11T02:25:15.852Z,95.07
2018-04-11T02:26:25.831Z,94.02
2018-04-11T02:27:35.790Z,94.31
2018-04-11T02:28:45.767Z,94.7
2018-04-11T02:29:55.740Z,94.41
2018-04-11T02:31:05.451Z,94.79
2018-04-11T02:32:15.432Z,94.89
2018-04-11T02:33:25.399Z,94.89
2018-04-11T02:34:34.856Z,94.7
2018-04-11T02:35:44.587Z,94.7
2018-04-11T02:36:54.579Z,94.79
2018-04-11T02:38:04.572Z,94.7
2018-04-11T02:39:14.555Z,94.84
2018-04-11T02:40:24.552Z,95.41
2018-04-11T02:41:34.255Z,95.27
2018-04-11T02:42:44.305Z,95.61
2018-04-11T02:43:53.761Z,95.56
2018-04-11T02:45:03.473Z,95.12
2018-04-11T02:46:13.201Z,95.32
2018-04-11T02:47:22.913Z,95.41
2018-04-11T02:48:33.181Z,95.51
2018-04-11T02:49:43.172Z,95.22
2018-04-11T02:50:53.144Z,95.56
2018-04-11T02:52:03.144Z,95.51
2018-04-11T02:53:13.135Z,95.7
2018-04-11T02:54:22.852Z,95.7
2018-04-11T02:55:32.848Z,95.32
2018-04-11T02:56:42.837Z,95.22
2018-04-11T02:57:52.554Z,95.22
2018-04-11T02:59:02.537Z,95.32
2018-04-11T03:00:12.814Z,95.41
2018-04-11T03:01:22.789Z,95.98
2018-04-11T03:02:32.781Z,95.7
2018-04-11T03:03:42.489Z,95.89
2018-04-11T03:04:52.455Z,95.7
2018-04-11T03:06:02.176Z,96.46
2018-04-11T03:07:11.890Z,96.46
2018-04-11T03:08:21.844Z,96.37
2018-04-11T03:09:31.563Z,96.27
2018-04-11T03:10:41.837Z,96.27
2018-04-11T03:11:51.805Z,96.17
2018-04-11T03:13:01.767Z,96.94
2018-04-11T03:14:11.733Z,96.75
2018-04-11T03:15:21.700Z,96.17
2018-04-11T03:16:31.657Z,96.84
2018-04-11T03:17:41.674Z,95.7
2018-04-11T03:18:51.637Z,96.27
2018-04-11T03:20:01.604Z,96.56
2018-04-11T03:21:11.312Z,96.46
2018-04-11T03:22:21.287Z,96.94
2018-04-11T03:23:31.248Z,95.7
2018-04-11T03:24:40.947Z,95.7
2018-04-11T03:25:50.404Z,95.7
2018-04-11T03:27:00.365Z,95.7
2018-04-11T03:28:10.326Z,95.61
2018-04-11T03:29:20.283Z,95.41
2018-04-11T03:30:30.262Z,96.08
2018-04-11T03:31:40.528Z,95.32
2018-04-11T03:32:50.529Z,95.61
2018-04-11T03:34:00.499Z,95.22
2018-04-11T03:35:10.461Z,95.61
2018-04-11T03:36:19.920Z,95.7
2018-04-11T03:37:29.886Z,95.7
2018-04-11T03:38:39.875Z,96.75
2018-04-11T03:39:49.939Z,96.08
2018-04-11T03:40:59.648Z,96.56
2018-04-11T03:42:09.649Z,96.66
2018-04-11T03:43:19.101Z,96.66
2018-04-11T03:44:29.105Z,97.23
2018-04-11T03:45:39.087Z,97.27
2018-04-11T03:46:48.796Z,96.98
2018-04-11T03:47:58.254Z,96.98
2018-04-11T03:49:08.226Z,98.13
2018-04-11T03:50:17.977Z,97.99
2018-04-11T03:51:27.942Z,96.98
2018-04-11T03:52:37.657Z,97.18
2018-04-11T03:53:47.681Z,97.27
2018-04-11T03:54:57.766Z,97.27
2018-04-11T03:56:07.733Z,97.75
2018-04-11T03:57:17.692Z,97.85
2018-04-11T03:58:27.734Z,96.98
2018-04-11T03:59:37.715Z,97.47
2018-04-11T04:00:47.707Z,97.75
2018-04-11T04:01:57.686Z,98.23
2018-04-11T04:03:07.667Z,97.08
2018-04-11T04:04:17.641Z,97.18
2018-04-11T04:05:27.356Z,97.18
2018-04-11T04:06:37.343Z,96.98
2018-04-11T04:07:47.177Z,97.47
2018-04-11T04:08:57.031Z,97.75
2018-04-11T04:10:07.016Z,97.32
2018-04-11T04:11:16.982Z,97.37
2018-04-11T04:12:26.951Z,96.89
2018-04-11T04:13:36.402Z,97.56
2018-04-11T04:14:46.222Z,97.75
2018-04-11T04:15:55.937Z,97.56
2018-04-11T04:17:05.654Z,97.61
2018-04-11T04:18:15.652Z,97.23
2018-04-11T04:19:25.363Z,97.8
2018-04-11T04:20:34.812Z,97.8
2018-04-11T04:21:44.771Z,97.32
2018-04-11T04:22:54.482Z,97.27
2018-04-11T04:24:04.457Z,97.47
2018-04-11T04:25:14.427Z,97.08
2018-04-11T04:26:24.160Z,97.32
2018-04-11T04:27:34.120Z,97.18
2018-04-11T04:28:44.089Z,97.27
2018-04-11T04:29:54.056Z,97.37
2018-04-11T04:31:04.026Z,96.22
2018-04-11T04:32:13.992Z,97.32
2018-04-11T04:33:23.956Z,96.7
2018-04-11T04:34:33.937Z,96.98
2018-04-11T04:35:43.905Z,96.8
2018-04-11T04:36:53.898Z,96.61
2018-04-11T04:38:03.881Z,96.7
2018-04-11T04:39:13.846Z,96.32
2018-04-11T04:40:23.558Z,95.94
2018-04-11T04:41:33.521Z,96.42
2018-04-11T04:42:43.506Z,96.32
2018-04-11T04:43:53.477Z,96.32
2018-04-11T04:45:03.451Z,96.51
2018-04-11T04:46:13.172Z,96.13
2018-04-11T04:47:22.898Z,96.03
2018-04-11T04:48:32.646Z,96.7
2018-04-11T04:49:42.617Z,95.94
2018-04-11T04:50:52.331Z,95.84
2018-04-11T04:52:02.309Z,96.22
2018-04-11T04:53:12.278Z,96.22
2018-04-11T04:54:22.250Z,96.42
2018-04-11T04:55:32.237Z,96.42
2018-04-11T04:56:42.203Z,96.7
2018-04-11T04:57:51.909Z,97.27
2018-04-11T04:59:01.867Z,97.27
2018-04-11T05:00:11.841Z,98.13
2018-04-11T05:01:21.550Z,98.61
2018-04-11T05:02:31.255Z,97.94
2018-04-11T05:03:40.972Z,98.71
2018-04-11T05:04:50.683Z,98.99
2018-04-11T05:05:59.879Z,99.99
2018-04-11T05:07:09.861Z,99.99
2018-04-11T05:08:19.840Z,99.99
2018-04-11T05:09:29.559Z,99.99
2018-04-11T05:10:39.301Z,99.66
2018-04-11T05:11:49.273Z,99.85
2018-04-11T05:12:58.997Z,99.99
2018-04-11T05:14:08.978Z,99.99
2018-04-11T05:15:19.165Z,99.99
2018-04-11T05:16:29.145Z,99.99
2018-04-11T05:17:39.125Z,99.99
2018-04-11T05:18:49.098Z,99.99
2018-04-11T05:19:59.110Z,99.95
2018-04-11T05:21:09.089Z,99.85
2018-04-11T05:22:18.798Z,99.99
2018-04-11T05:23:28.771Z,99.99
2018-04-11T05:24:38.740Z,99.99
2018-04-11T05:25:48.444Z,99.99
2018-04-11T05:26:58.412Z,99.99
2018-04-11T05:28:08.386Z,99.99
2018-04-11T05:29:18.146Z,99.99
2018-04-11T05:30:28.107Z,99.99
2018-04-11T05:31:38.101Z,99.99
2018-04-11T05:32:47.814Z,99.99
2018-04-11T05:33:57.538Z,99.99
2018-04-11T05:35:07.285Z,99.99
2018-04-11T05:36:17.315Z,99.99
2018-04-11T05:37:27.279Z,99.99
2018-04-11T05:38:37.258Z,99.99
2018-04-11T05:39:47.244Z,99.99
2018-04-11T05:40:56.969Z,99.99
2018-04-11T05:42:06.693Z,99.99
2018-04-11T05:43:16.658Z,99.99
2018-04-11T05:44:26.645Z,99.99
2018-04-11T05:45:36.116Z,99.99
2018-04-11T05:46:46.103Z,99.99
2018-04-11T05:47:56.146Z,99.99
2018-04-11T05:49:06.284Z,99.99
2018-04-11T05:50:16.264Z,99.99
2018-04-11T05:51:25.965Z,99.99
2018-04-11T05:52:35.954Z,99.99
2018-04-11T05:53:45.929Z,99.99
2018-04-11T05:54:55.683Z,99.99
2018-04-11T05:56:05.243Z,99.99
2018-04-11T05:57:15.329Z,99.99
2018-04-11T05:58:25.066Z,99.99
2018-04-11T05:59:34.273Z,99.99
2018-04-11T06:00:44.025Z,99.99
2018-04-11T06:01:54.115Z,99.99
2018-04-11T06:03:04.106Z,99.99
2018-04-11T06:04:14.107Z,99.99
2018-04-11T06:05:23.555Z,99.99
2018-04-11T06:06:33.531Z,99.99
2018-04-11T06:07:43.312Z,99.99
2018-04-11T06:08:53.054Z,99.99
2018-04-11T06:10:03.064Z,99.99
2018-04-11T06:11:12.777Z,99.99
2018-04-11T06:12:22.809Z,99.99
2018-04-11T06:13:32.818Z,99.99
2018-04-11T06:14:42.789Z,99.99
2018-04-11T06:15:52.774Z,99.99
2018-04-11T06:17:02.782Z,99.99
2018-04-11T06:18:12.759Z,99.99
2018-04-11T06:19:22.473Z,99.99
2018-04-11T06:20:32.448Z,99.99
2018-04-11T06:21:42.437Z,99.99
2018-04-11T06:22:52.253Z,99.99
2018-04-11T06:24:02.323Z,99.99
2018-04-11T06:25:12.316Z,99.99
2018-04-11T06:26:22.298Z,99.99
2018-04-11T06:27:32.289Z,99.99
2018-04-11T06:28:42.279Z,99.99
2018-04-11T06:29:51.726Z,99.99
2018-04-11T06:31:01.691Z,99.99
2018-04-11T06:32:11.154Z,99.99
2018-04-11T06:33:21.137Z,99.99
2018-04-11T06:34:31.136Z,99.99
2018-04-11T06:35:41.119Z,99.99
2018-04-11T06:36:50.855Z,99.99
2018-04-11T06:38:00.829Z,99.99
2018-04-11T06:39:10.816Z,99.99
2018-04-11T06:40:20.270Z,99.99
2018-04-11T06:41:30.275Z,99.99
2018-04-11T06:42:40.248Z,99.99
2018-04-11T06:43:50.215Z,99.99
2018-04-11T06:44:59.923Z,99.99
2018-04-11T06:46:09.970Z,99.99
2018-04-11T06:47:20.110Z,99.99
2018-04-11T06:48:30.188Z,99.99
2018-04-11T06:49:40.220Z,99.99
2018-04-11T06:50:50.201Z,99.99
2018-04-11T06:52:00.186Z,99.99
2018-04-11T06:53:10.173Z,99.99
2018-04-11T06:54:20.381Z,99.99
2018-04-11T06:55:29.910Z,99.99
2018-04-11T06:56:39.914Z,99.99
2018-04-11T06:57:49.646Z,99.99
2018-04-11T06:58:59.109Z,99.99
2018-04-11T07:00:09.095Z,99.99
2018-04-11T07:01:19.114Z,99.99
2018-04-11T07:02:29.099Z,99.99
2018-04-11T07:03:39.107Z,99.99
2018-04-11T07:04:48.849Z,99.38
2018-04-11T07:05:58.586Z,99.76
2018-04-11T07:07:08.591Z,99.48
2018-04-11T07:08:18.564Z,99.99
2018-04-11T07:09:28.294Z,99.48
2018-04-11T07:10:38.369Z,98.99
2018-04-11T07:11:48.357Z,98.99
2018-04-11T07:12:58.365Z,98.38
2018-04-11T07:14:08.478Z,97.71
2018-04-11T07:15:18.496Z,98.99
2018-04-11T07:16:28.467Z,98.18
2018-04-11T07:17:38.519Z,97.71
2018-04-11T07:18:48.501Z,98.85
2018-04-11T07:19:58.641Z,98.47
2018-04-11T07:21:08.703Z,97.71
2018-04-11T07:22:18.439Z,96.75
2018-04-11T07:23:28.426Z,96.84
2018-04-11T07:24:38.181Z,97.99
2018-04-11T07:25:47.972Z,97.04
2018-04-11T07:26:57.497Z,96.37
2018-04-11T07:28:07.279Z,95.79
2018-04-11T07:29:16.989Z,96.37
2018-04-11T07:30:26.978Z,97.61
2018-04-11T07:31:36.971Z,96.13
2018-04-11T07:32:46.791Z,96.22
2018-04-11T07:33:56.606Z,95.17
2018-04-11T07:35:06.596Z,95.07
2018-04-11T07:36:16.606Z,95.36
2018-04-11T07:37:26.345Z,94.7
2018-04-11T07:38:36.061Z,94.41
2018-04-11T07:39:46.053Z,93.55
2018-04-11T07:40:56.046Z,95.27
2018-04-11T07:42:06.023Z,94.79
2018-04-11T07:43:15.747Z,94.79
2018-04-11T07:44:25.974Z,94.7
2018-04-11T07:45:35.942Z,94.02
2018-04-11T07:46:45.914Z,95.07
2018-04-11T07:47:55.683Z,95.17
2018-04-11T07:49:05.660Z,93.55
2018-04-11T07:50:15.392Z,93.93
2018-04-11T07:51:25.401Z,93.69
2018-04-11T07:52:35.374Z,93.64
2018-04-11T07:53:45.362Z,93.88
2018-04-11T07:54:55.084Z,93.79
2018-04-11T07:56:05.065Z,92.63
2018-04-11T07:57:14.836Z,92.83
2018-04-11T07:58:24.847Z,92.35
2018-04-11T07:59:34.819Z,92.44
2018-04-11T08:00:44.565Z,92.63
2018-04-11T08:01:54.799Z,91.77
2018-04-11T08:03:04.577Z,91.77
2018-04-11T08:04:14.920Z,92.73
2018-04-11T08:05:24.902Z,92.16
2018-04-11T08:06:34.895Z,91.11
2018-04-11T08:07:45.079Z,91.63
2018-04-11T08:08:55.080Z,90.86
2018-04-11T08:10:05.188Z,90.48
2018-04-11T08:11:14.723Z,90.48
2018-04-11T08:12:24.463Z,89.72
2018-04-11T08:13:34.428Z,89.9
2018-04-11T08:14:44.433Z,90.96
2018-04-11T08:15:54.172Z,90
2018-04-11T08:17:03.898Z,90.48
2018-04-11T08:18:13.668Z,90.91
2018-04-11T08:19:23.723Z,90.05
2018-04-11T08:20:33.721Z,88.9
2018-04-11T08:21:43.705Z,88.32
2018-04-11T08:22:53.735Z,87.27
2018-04-11T08:24:03.751Z,87.74
2018-04-11T08:25:13.211Z,86.88
2018-04-11T08:26:22.675Z,86.83
2018-04-11T08:27:32.676Z,85.58
2018-04-11T08:28:42.668Z,85.01
2018-04-11T08:29:52.726Z,83.61
2018-04-11T08:31:02.847Z,82.98
2018-04-11T08:32:12.853Z,82.79
2018-04-11T08:33:22.828Z,80.49
2018-04-11T08:34:32.831Z,79.19
2018-04-11T08:35:42.582Z,79.47
2018-04-11T08:36:52.637Z,78.9
2018-04-11T08:38:02.629Z,79.67
2018-04-11T08:39:44.446Z,78.8
2018-04-11T08:40:54.190Z,78.17
2018-04-11T08:42:04.206Z,78.55
2018-04-11T08:43:14.194Z,76.44
2018-04-11T08:44:24.233Z,75.71
2018-04-11T08:45:34.288Z,75.62
2018-04-11T08:46:44.490Z,75.62
2018-04-11T08:47:54.481Z,75.13
2018-04-11T08:49:04.491Z,75.37
2018-04-11T08:50:14.490Z,74.3
2018-04-11T08:51:24.519Z,74.5
2018-04-11T08:52:34.547Z,73.38
2018-04-11T08:53:44.629Z,73.09
2018-04-11T08:54:54.640Z,71.94
2018-04-11T08:56:04.668Z,72.32
2018-04-11T08:57:14.694Z,72.67
2018-04-11T08:58:24.455Z,72.23
2018-04-11T08:59:34.216Z,71.84
2018-04-11T09:00:44.200Z,72.13
2018-04-11T09:01:53.703Z,72.13
2018-04-11T09:03:03.734Z,71.46
2018-04-11T09:04:13.765Z,71.3
2018-04-11T09:05:23.895Z,70.53
2018-04-11T09:06:34.308Z,69.67
2018-04-11T09:07:44.323Z,69.76
2018-04-11T09:08:54.067Z,69.47
2018-04-11T09:10:03.794Z,70.05
2018-04-11T09:11:13.784Z,70.43
2018-04-11T09:12:23.514Z,70.15
2018-04-11T09:13:32.976Z,70.15
2018-04-11T09:14:43.008Z,69.76
2018-04-11T09:15:53.011Z,69.95
2018-04-11T09:17:02.989Z,68.54
2018-04-11T09:18:12.978Z,68.74
2018-04-11T09:19:22.982Z,68.41
2018-04-11T09:20:32.988Z,68.44
2018-04-11T09:21:42.949Z,67.29
2018-04-11T09:22:52.392Z,67.03
2018-04-11T09:24:02.107Z,66.94
2018-04-11T09:25:12.090Z,67.61
2018-04-11T09:26:22.137Z,65.78
2018-04-11T09:27:32.116Z,65.43
2018-04-11T09:28:42.125Z,64.86
2018-04-11T09:29:51.610Z,64.66
2018-04-11T09:31:01.621Z,64.56
2018-04-11T09:32:11.832Z,63.82
2018-04-11T09:33:21.566Z,63.15
2018-04-11T09:34:31.320Z,62.86
2018-04-11T09:35:41.319Z,62.31
2018-04-11T09:36:51.323Z,62.28
2018-04-11T09:38:01.053Z,62.86
2018-04-11T09:39:11.050Z,63.5
2018-04-11T09:40:21.036Z,63.7
2018-04-11T09:41:30.792Z,63.41
2018-04-11T09:42:40.523Z,62.18
2018-04-11T09:43:50.554Z,61.99
2018-04-11T09:45:00.550Z,60.96
2018-04-11T09:46:10.536Z,59.74
2018-04-11T09:47:20.583Z,60.41
2018-04-11T09:48:30.607Z,59.55
2018-04-11T09:49:40.613Z,59.28
2018-04-11T09:50:50.597Z,59.67
2018-04-11T09:52:00.647Z,59
2018-04-11T09:53:10.689Z,58.35
2018-04-11T09:54:20.697Z,58.73
2018-04-11T09:55:30.430Z,59.58
2018-04-11T09:56:40.171Z,59.55
2018-04-11T09:57:50.174Z,59.64
2018-04-11T09:59:00.217Z,59.35
2018-04-11T10:00:10.226Z,60.58
2018-04-11T10:01:20.245Z,59.9
2018-04-11T10:02:30.267Z,60.41
2018-04-11T10:03:40.336Z,60.38
2018-04-11T10:04:50.342Z,60
2018-04-11T10:06:00.094Z,60.38
2018-04-11T10:07:10.124Z,60.96
2018-04-11T10:08:19.948Z,60.48
2018-04-11T10:09:29.996Z,59.83
2018-04-11T10:10:39.474Z,59.55
2018-04-11T10:11:49.223Z,58.58
2018-04-11T10:12:58.966Z,58
2018-04-11T10:14:08.699Z,57.64
2018-04-11T10:15:18.959Z,56.99
2018-04-11T10:16:28.705Z,56.99
2018-04-11T10:17:38.741Z,56.71
2018-04-11T10:18:48.782Z,56.93
2018-04-11T10:19:58.536Z,57.09
2018-04-11T10:21:08.350Z,56.61
2018-04-11T10:22:18.091Z,56.51
2018-04-11T10:23:27.306Z,56.71
2018-04-11T10:24:37.077Z,56.25
2018-04-11T10:25:47.087Z,57.09
2018-04-11T10:26:56.568Z,57.64
2018-04-11T10:28:06.555Z,58.32
2018-04-11T10:29:16.549Z,57.81
2018-04-11T10:30:26.541Z,58.22
2018-04-11T10:31:36.546Z,58.51
2018-04-11T10:32:46.603Z,57.84
2018-04-11T10:33:56.593Z,57.48
2018-04-11T10:35:06.331Z,57.77
2018-04-11T10:36:16.309Z,57.38
2018-04-11T10:37:26.320Z,56.9
2018-04-11T10:38:36.322Z,56.8
2018-04-11T10:39:46.610Z,56.15
2018-04-11T10:40:56.706Z,55.77
2018-04-11T10:42:06.444Z,55.67
2018-04-11T10:43:16.185Z,55.31
2018-04-11T10:44:26.181Z,55.31
2018-04-11T10:45:36.201Z,55.41
2018-04-11T10:46:46.197Z,54.99
2018-04-11T10:47:56.235Z,55.31
2018-04-11T10:49:05.990Z,56.05
2018-04-11T10:50:15.994Z,55.31
2018-04-11T10:51:25.718Z,55.19
2018-04-11T10:52:35.728Z,56.83
2018-04-11T10:53:45.779Z,55.74
2018-04-11T10:54:55.792Z,55.38
2018-04-11T10:56:05.275Z,56.25
2018-04-11T10:57:15.266Z,56.71
2018-04-11T10:58:25.014Z,56.99
2018-04-11T10:59:35.022Z,55.83
2018-04-11T11:00:45.045Z,56.25
2018-04-11T11:01:55.161Z,55.29
2018-04-11T11:03:04.885Z,54.73
2018-04-11T11:04:14.894Z,54.25
2018-04-11T11:05:24.618Z,54.25
2018-04-11T11:06:34.617Z,53.79
2018-04-11T11:07:44.592Z,53.5
2018-04-11T11:08:54.585Z,53.69
2018-04-11T11:10:04.649Z,54.17
2018-04-11T11:11:14.650Z,55.02
2018-04-11T11:12:24.660Z,54.15
2018-04-11T11:13:34.685Z,53.11
2018-04-11T11:14:44.733Z,52.82
2018-04-11T11:15:54.511Z,52.63
2018-04-11T11:17:04.528Z,53.14
2018-04-11T11:18:14.542Z,52.27
2018-04-11T11:19:24.538Z,52.92
2018-04-11T11:20:34.280Z,53.31
2018-04-11T11:21:44.258Z,53.02
2018-04-11T11:22:54.320Z,52.75
2018-04-11T11:24:04.033Z,53.41
2018-04-11T11:25:14.020Z,53.99
2018-04-11T11:26:23.993Z,54.73
2018-04-11T11:27:33.472Z,55.21
2018-04-11T11:28:43.455Z,55.57
2018-04-11T11:29:53.440Z,55.77
2018-04-11T11:31:03.469Z,56.15
2018-04-11T11:32:13.223Z,55.93
2018-04-11T11:33:23.205Z,55.93
2018-04-11T11:34:32.948Z,56.22
2018-04-11T11:35:42.958Z,57.19
2018-04-11T11:36:52.972Z,58.1
2018-04-11T11:38:02.939Z,57.93
2018-04-11T11:39:12.660Z,58.29
2018-04-11T11:40:22.643Z,57.93
2018-04-11T11:41:32.387Z,57.35
2018-04-11T11:42:42.369Z,57.09
2018-04-11T11:43:52.124Z,56.87
2018-04-11T11:45:01.931Z,56.71
2018-04-11T11:46:11.667Z,55.87
2018-04-11T11:47:21.712Z,55.67
2018-04-11T11:48:31.707Z,55.11
2018-04-11T11:49:41.445Z,54.63
2018-04-11T11:50:51.436Z,54.25
2018-04-11T11:52:01.189Z,54.73
2018-04-11T11:53:11.402Z,53.79
2018-04-11T11:54:21.397Z,54.17
2018-04-11T11:55:31.379Z,53.86
2018-04-11T11:56:41.372Z,52.92
2018-04-11T11:57:51.369Z,54.37
2018-04-11T11:59:01.378Z,54.15
2018-04-11T12:00:11.374Z,53.57
2018-04-11T12:01:21.356Z,52.73
2018-04-11T12:02:31.365Z,52.44
2018-04-11T12:03:41.337Z,52.17
2018-04-11T12:04:51.338Z,51.72
2018-04-11T12:06:01.219Z,51.45
2018-04-11T12:07:11.210Z,50.41
2018-04-11T12:08:21.186Z,49.92
2018-04-11T12:09:31.173Z,49.15
2018-04-11T12:10:41.160Z,50.21
2018-04-11T12:11:51.159Z,50.48
2018-04-11T12:13:01.225Z,51.04
2018-04-11T12:14:11.408Z,50.55
2018-04-11T12:15:21.418Z,50.19
2018-04-11T12:16:31.414Z,50.19
2018-04-11T12:17:41.430Z,49.24
2018-04-11T12:18:51.452Z,48.69
2018-04-11T12:20:01.193Z,48.78
2018-04-11T12:21:11.190Z,47.96
2018-04-11T12:22:20.923Z,47.28
2018-04-11T12:23:30.923Z,48.15
2018-04-11T12:24:40.927Z,47.45
2018-04-11T12:25:50.924Z,47.83
2018-04-11T12:27:00.913Z,48.3
2018-04-11T12:28:10.657Z,49.56
2018-04-11T12:29:20.397Z,49.24
2018-04-11T12:30:30.394Z,48.95
2018-04-11T12:31:40.382Z,49.15
2018-04-11T12:32:50.390Z,50.21
2018-04-11T12:34:00.392Z,50.48
2018-04-11T12:35:10.134Z,51.42
2018-04-11T12:36:19.652Z,51.42
2018-04-11T12:37:29.730Z,50.77
2018-04-11T12:38:39.715Z,50.77
2018-04-11T12:39:49.713Z,50.87
2018-04-11T12:40:59.647Z,50.48
2018-04-11T12:42:09.655Z,49.12
2018-04-11T12:43:19.648Z,49.54
2018-04-11T12:44:29.391Z,50.02
2018-04-11T12:45:39.136Z,49.9
2018-04-11T12:46:49.168Z,51.25
2018-04-11T12:47:58.368Z,51.81
2018-04-11T12:49:08.106Z,52.08
2018-04-11T12:50:17.889Z,51.68
2018-04-11T12:51:27.888Z,51.59
2018-04-11T12:52:37.871Z,51.42
2018-04-11T12:53:47.640Z,51.98
2018-04-11T12:54:57.377Z,52.17
2018-04-11T12:56:07.088Z,52.75
2018-04-11T12:57:16.821Z,52.92
2018-04-11T12:58:26.586Z,52.92
2018-04-11T12:59:36.685Z,52.44
2018-04-11T13:00:46.408Z,51.76
2018-04-11T13:01:56.401Z,51.3
2018-04-11T13:03:06.148Z,51.32
2018-04-11T13:04:16.126Z,52
2018-04-11T13:05:25.859Z,52.82
2018-04-11T13:06:35.857Z,52.92
2018-04-11T13:07:45.844Z,52.53
2018-04-11T13:08:55.825Z,52.92
2018-04-11T13:10:05.861Z,53.28
2018-04-11T13:11:15.859Z,53.86
2018-04-11T13:12:25.862Z,54.83
2018-04-11T13:13:35.618Z,54.25
2018-04-11T13:14:45.635Z,53.57
2018-04-11T13:15:55.633Z,52.73
2018-04-11T13:17:05.639Z,52.14
2018-04-11T13:18:15.453Z,51.4
2018-04-11T13:19:25.811Z,50.65
2018-04-11T13:20:35.838Z,50.84
2018-04-11T13:21:45.827Z,50.45
2018-04-11T13:22:55.537Z,50.35
2018-04-11T13:24:05.538Z,51.13
2018-04-11T13:25:15.523Z,51.4
2018-04-11T13:26:25.533Z,51.88
2018-04-11T13:27:35.513Z,53.11
2018-04-11T13:28:45.512Z,53.47
2018-04-11T13:29:55.482Z,53.28
2018-04-11T13:31:05.481Z,52.73
2018-04-11T13:32:15.212Z,52.92
2018-04-11T13:33:25.193Z,52.63
2018-04-11T13:34:34.932Z,52.24
2018-04-11T13:35:44.662Z,51.95
2018-04-11T13:36:54.678Z,51.59
2018-04-11T13:38:04.688Z,52.82
2018-04-11T13:39:14.409Z,52.24
2018-04-11T13:40:24.130Z,52.53
2018-04-11T13:41:34.130Z,53.31
2018-04-11T13:42:43.854Z,53.41
2018-04-11T13:43:53.841Z,53.96
2018-04-11T13:45:03.834Z,55.57
2018-04-11T13:46:13.883Z,56.8
2018-04-11T13:47:23.609Z,56.48
2018-04-11T13:48:33.621Z,56.51
2018-04-11T13:49:43.424Z,56.22
2018-04-11T13:50:53.633Z,55.74
2018-04-11T13:52:03.842Z,55.87
2018-04-11T13:53:13.826Z,55.74
2018-04-11T13:54:23.828Z,56.13
2018-04-11T13:55:33.824Z,55.71
2018-04-11T13:56:43.814Z,56.22
2018-04-11T13:57:53.861Z,56.22
2018-04-11T13:59:03.857Z,55.35
2018-04-11T14:00:13.839Z,55.07
2018-04-11T14:01:23.840Z,55.29
2018-04-11T14:02:33.900Z,54.25
2018-04-11T14:03:43.892Z,53.86
2018-04-11T14:04:53.930Z,53.77
2018-04-11T14:06:03.941Z,53.47
2018-04-11T14:07:13.963Z,54.15
2018-04-11T14:08:23.727Z,54.71
2018-04-11T14:09:33.713Z,55.07
2018-04-11T14:10:43.707Z,54.29
2018-04-11T14:11:53.174Z,54.41
2018-04-11T14:13:03.160Z,55.65
2018-04-11T14:14:13.160Z,55.35
2018-04-11T14:15:23.143Z,55.09
2018-04-11T14:16:32.613Z,54.51
2018-04-11T14:17:42.661Z,53.57
2018-04-11T14:18:52.650Z,52.7
2018-04-11T14:20:02.646Z,52.92
2018-04-11T14:21:12.633Z,52.14
2018-04-11T14:22:22.616Z,51.56
2018-04-11T14:23:32.357Z,51.95
2018-04-11T14:24:42.344Z,53.02
2018-04-11T14:25:52.380Z,54.15
2018-04-11T14:27:02.377Z,54.77
2018-04-11T14:28:12.111Z,55.65
2018-04-11T14:29:22.104Z,55.07
2018-04-11T14:30:31.818Z,54
2018-04-11T14:31:41.809Z,53.64
2018-04-11T14:32:51.536Z,53.47
2018-04-11T14:34:01.057Z,53.19
2018-04-11T14:35:11.080Z,53.11
2018-04-11T14:36:21.090Z,52.82
2018-04-11T14:37:30.833Z,52.14
2018-04-11T14:38:40.828Z,51.56
2018-04-11T14:39:50.786Z,51.56
2018-04-11T14:41:00.516Z,52.53
2018-04-11T14:42:10.514Z,53.31
2018-04-11T14:43:20.026Z,53.74
2018-04-11T14:44:30.048Z,53.55
2018-04-11T14:45:40.044Z,54.51
2018-04-11T14:46:49.796Z,54.51
2018-04-11T14:47:59.520Z,55.16
2018-04-11T14:49:09.254Z,55.26
2018-04-11T14:50:19.260Z,54.87
2018-04-11T14:51:29.244Z,55.16
2018-04-11T14:52:38.958Z,56.22
2018-04-11T14:53:48.950Z,55.26
2018-04-11T14:54:58.940Z,55.07
2018-04-11T14:56:08.928Z,55.45
2018-04-11T14:57:18.113Z,56.2
2018-04-11T14:58:28.100Z,55.9
2018-04-11T14:59:38.077Z,55.74
2018-04-11T15:00:48.068Z,56.22
2018-04-11T15:01:58.057Z,56.58
2018-04-11T15:03:07.781Z,57.06
2018-04-11T15:04:17.772Z,56.84